Time;durP1;ratioP1;P1;durP2;ratioP2;P2;SDS_P1;SDS_P2;PMS_P1;PMS_P2;Temp;Humidity;BMP_temperature;BMP_pressure;BME280_temperature;BME280_humidity;BME280_pressure;Samples;Min_cycle;Max_cycle;Signal;HPM_P1;HPM_P2
2022/01/20 00:01:24;;;;;;;0.45;0.45;;;3.60;99.90;;;;;;5031629;28;20078;-87
2022/01/20 00:03:54;;;;;;;0.30;0.30;;;3.60;99.90;;;;;;5031395;28;20049;-88
2022/01/20 00:28:20;;;;;;;0.40;0.40;;;3.80;99.90;;;;;;5015723;28;20056;-88
2022/01/20 00:33:20;;;;;;;0.40;0.40;;;3.80;99.90;;;;;;5015587;28;20061;-87
2022/01/20 00:38:33;;;;;;;0.40;0.40;;;3.80;99.90;;;;;;5015409;28;20064;-88
2022/01/20 00:41:03;;;;;;;0.60;0.40;;;3.90;99.90;;;;;;5030437;28;20121;-89
2022/01/20 00:43:30;;;;;;;0.30;0.30;;;3.90;99.90;;;;;;5030965;28;20080;-88
2022/01/20 00:45:57;;;;;;;0.40;0.40;;;3.90;99.90;;;;;;5030665;28;20050;-88
2022/01/20 00:48:24;;;;;;;0.30;0.30;;;3.90;99.90;;;;;;5030580;28;20124;-87
2022/01/20 00:50:51;;;;;;;0.30;0.30;;;3.90;99.90;;;;;;5030438;28;20129;-87
2022/01/20 00:53:18;;;;;;;0.35;0.20;;;4.00;99.90;;;;;;5030411;28;20233;-88
2022/01/20 00:55:45;;;;;;;0.28;0.28;;;4.00;99.90;;;;;;5030376;28;20137;-87
2022/01/20 00:58:12;;;;;;;0.20;0.20;;;3.90;99.90;;;;;;5030421;28;20045;-87
2022/01/20 01:00:39;;;;;;;0.30;0.30;;;3.80;99.90;;;;;;5030400;28;20137;-87
2022/01/20 01:03:06;;;;;;;0.28;0.28;;;3.80;99.90;;;;;;5030358;28;20049;-87
2022/01/20 01:05:37;;;;;;;0.20;0.20;;;3.90;99.90;;;;;;5030316;28;20069;-88
2022/01/20 01:08:08;;;;;;;0.43;0.40;;;3.90;99.90;;;;;;5030269;28;20057;-87
2022/01/20 01:10:37;;;;;;;0.30;0.30;;;3.80;99.90;;;;;;5014003;28;20128;-87
2022/01/20 01:13:12;;;;;;;0.20;0.20;;;3.70;99.90;;;;;;5030313;28;20133;-87
2022/01/20 01:15:45;;;;;;;0.40;0.35;;;3.70;99.90;;;;;;5030414;28;20136;-88
2022/01/20 01:23:42;;;;;;;1.35;0.30;;;3.60;99.90;;;;;;5014937;28;20061;-87
2022/01/20 01:26:14;;;;;;;0.32;0.32;;;3.60;99.90;;;;;;5030085;28;20056;-87
2022/01/20 01:28:41;;;;;;;0.32;0.32;;;3.70;99.90;;;;;;5029944;28;20048;-88
2022/01/20 01:33:56;;;;;;;0.30;0.30;;;3.70;99.90;;;;;;5014754;28;20080;-88
2022/01/20 01:36:26;;;;;;;0.52;0.52;;;3.70;99.90;;;;;;5029916;28;20491;-87
2022/01/20 01:38:53;;;;;;;0.30;0.30;;;3.80;99.90;;;;;;5029201;28;20138;-88
2022/01/20 01:41:33;;;;;;;0.50;0.50;;;3.80;99.90;;;;;;5029632;28;20057;-88
2022/01/20 01:44:05;;;;;;;0.43;0.43;;;3.70;99.90;;;;;;5029854;28;20136;-87
2022/01/20 01:46:33;;;;;;;1.17;0.50;;;3.60;99.90;;;;;;5029794;28;20108;-87
2022/01/20 01:49:00;;;;;;;0.57;0.57;;;3.60;99.90;;;;;;5029872;28;20410;-87
2022/01/20 01:51:27;;;;;;;0.50;0.50;;;3.50;99.90;;;;;;5029384;28;20128;-88
2022/01/20 01:53:54;;;;;;;0.55;0.55;;;3.40;99.90;;;;;;5029642;28;20137;-88
2022/01/20 01:56:21;;;;;;;0.68;0.68;;;3.30;99.90;;;;;;5014212;28;20056;-90
2022/01/20 01:58:47;;;;;;;1.00;1.00;;;3.30;99.90;;;;;;5029677;28;20048;-90
2022/01/20 02:01:14;;;;;;;1.20;1.17;;;3.20;99.90;;;;;;5030162;28;20058;-91
2022/01/20 02:03:46;;;;;;;0.73;0.70;;;3.20;99.90;;;;;;5029669;28;20125;-90
2022/01/20 02:09:23;;;;;;;3.47;0.80;;;3.00;99.90;;;;;;5014423;28;20435;-91
2022/01/20 02:20:01;;;;;;;1.60;0.80;;;2.40;99.90;;;;;;5016106;28;20453;-91
2022/01/20 02:22:28;;;;;;;1.63;0.90;;;2.20;99.90;;;;;;5031101;28;20405;-92
2022/01/20 02:24:54;;;;;;;7.00;1.13;;;2.20;99.90;;;;;;5031441;28;20133;-92
2022/01/20 02:27:21;;;;;;;1.48;1.10;;;2.10;99.90;;;;;;5031790;28;20137;-92
2022/01/20 02:29:48;;;;;;;1.63;1.02;;;2.10;99.90;;;;;;5030318;28;20121;-91
2022/01/20 02:32:15;;;;;;;1.10;0.98;;;2.00;99.90;;;;;;5033495;28;20469;-91
2022/01/20 02:34:42;;;;;;;2.47;1.08;;;1.90;99.90;;;;;;5035495;28;20118;-91
2022/01/20 02:37:12;;;;;;;2.90;1.00;;;1.80;99.90;;;;;;5035304;28;20114;-92
2022/01/20 02:45:01;;;;;;;3.22;1.13;;;1.40;99.90;;;;;;5018881;28;20060;-91
2022/01/20 02:47:33;;;;;;;1.90;1.10;;;1.20;99.90;;;;;;5034019;28;20119;-92
2022/01/20 02:50:00;;;;;;;6.03;1.05;;;1.10;99.90;;;;;;5034303;28;20096;-92
2022/01/20 02:52:27;;;;;;;5.03;1.40;;;1.00;99.90;;;;;;5033737;28;20081;-91
2022/01/20 02:54:55;;;;;;;2.85;1.17;;;0.80;99.90;;;;;;5033376;28;20074;-92
2022/01/20 02:57:23;;;;;;;6.13;1.60;;;0.80;99.90;;;;;;5033292;28;20132;-92
2022/01/20 02:59:50;;;;;;;3.60;1.33;;;0.70;99.90;;;;;;5033215;28;20144;-92
2022/01/20 03:02:17;;;;;;;7.32;1.83;;;0.70;99.90;;;;;;5033065;28;20136;-91
2022/01/20 03:04:44;;;;;;;4.82;1.25;;;0.60;99.90;;;;;;5032020;28;20046;-92
2022/01/20 03:07:12;;;;;;;4.63;1.60;;;0.60;99.90;;;;;;5032011;28;20122;-91
2022/01/20 03:09:39;;;;;;;5.93;1.50;;;0.50;99.90;;;;;;5032168;28;20477;-91
2022/01/20 03:12:06;;;;;;;5.93;1.40;;;0.40;99.90;;;;;;5015429;28;20152;-91
2022/01/20 03:14:34;;;;;;;6.57;1.23;;;0.30;99.90;;;;;;5015214;28;20136;-91
2022/01/20 03:17:02;;;;;;;4.60;1.30;;;0.20;99.90;;;;;;5032047;28;20050;-90
2022/01/20 03:19:28;;;;;;;7.35;1.27;;;0.20;99.90;;;;;;5031815;28;20046;-91
2022/01/20 03:21:55;;;;;;;7.80;1.85;;;0.10;99.90;;;;;;5031953;28;20138;-91
2022/01/20 03:24:22;;;;;;;9.43;1.85;;;0.10;99.90;;;;;;5031742;28;20071;-89
2022/01/20 03:26:48;;;;;;;12.63;3.15;;;0.10;99.90;;;;;;5031792;28;20501;-92
2022/01/20 03:29:15;;;;;;;10.15;2.22;;;0.10;99.90;;;;;;5031827;28;20140;-91
2022/01/20 03:31:43;;;;;;;2.92;1.80;;;0.10;99.90;;;;;;5031504;28;20052;-90
2022/01/20 03:34:10;;;;;;;17.55;2.95;;;0.00;99.90;;;;;;5031243;28;20053;-91
2022/01/20 03:36:37;;;;;;;8.77;2.10;;;-0.10;99.90;;;;;;5031830;28;20065;-91
2022/01/20 03:39:05;;;;;;;15.75;3.47;;;-0.20;99.90;;;;;;5031506;28;20054;-91
2022/01/20 03:41:32;;;;;;;9.73;2.60;;;-0.20;99.90;;;;;;5015083;28;20060;-91
2022/01/20 03:43:58;;;;;;;20.30;2.78;;;-0.20;99.90;;;;;;5031265;28;20132;-91
2022/01/20 03:46:25;;;;;;;8.95;2.53;;;-0.30;99.90;;;;;;5031206;28;20064;-90
2022/01/20 03:48:55;;;;;;;12.68;2.13;;;-0.20;99.90;;;;;;5031529;28;20097;-91
2022/01/20 03:51:24;;;;;;;12.63;2.00;;;-0.30;99.90;;;;;;5031259;28;20111;-91
2022/01/20 03:53:54;;;;;;;16.25;2.78;;;-0.30;99.90;;;;;;5031348;28;20076;-91
2022/01/20 03:56:21;;;;;;;13.02;1.80;;;-0.30;99.90;;;;;;5014711;28;20057;-91
2022/01/20 03:58:48;;;;;;;19.45;2.10;;;-0.30;99.90;;;;;;5031439;28;20235;-91
2022/01/20 04:01:15;;;;;;;14.25;2.22;;;-0.40;99.90;;;;;;5031345;28;20046;-91
2022/01/20 04:03:43;;;;;;;19.92;2.55;;;-0.30;99.90;;;;;;5031500;28;20104;-91
2022/01/20 04:06:10;;;;;;;8.07;1.77;;;-0.30;99.90;;;;;;5031427;28;20140;-90
2022/01/20 04:08:39;;;;;;;13.63;2.70;;;-0.40;99.90;;;;;;5031344;28;20060;-91
2022/01/20 04:11:10;;;;;;;15.98;2.58;;;-0.40;99.90;;;;;;5031010;28;20060;-91
2022/01/20 04:13:37;;;;;;;11.88;2.30;;;-0.40;99.90;;;;;;5031098;28;20405;-90
2022/01/20 04:16:13;;;;;;;13.73;2.22;;;-0.40;99.90;;;;;;5031404;28;20516;-90
2022/01/20 04:18:52;;;;;;;17.15;2.03;;;-0.50;99.90;;;;;;5031185;28;20042;-90
2022/01/20 04:21:24;;;;;;;12.40;2.58;;;-0.50;99.90;;;;;;5031024;28;20144;-90
2022/01/20 04:23:52;;;;;;;13.27;1.70;;;-0.50;99.90;;;;;;5030852;28;20133;-90
2022/01/20 04:26:20;;;;;;;14.50;1.95;;;-0.60;99.90;;;;;;5030540;28;20494;-91
2022/01/20 04:28:47;;;;;;;15.98;1.88;;;-0.60;99.90;;;;;;5030834;28;20406;-91
2022/01/20 04:31:16;;;;;;;20.55;2.45;;;-0.50;99.90;;;;;;5030124;28;20140;-90
2022/01/20 04:33:43;;;;;;;19.25;2.80;;;-0.50;99.90;;;;;;5030279;28;20076;-90
2022/01/20 04:36:10;;;;;;;12.38;2.10;;;-0.60;99.90;;;;;;5030432;28;20141;-90
2022/01/20 04:38:37;;;;;;;12.02;2.22;;;-0.70;99.90;;;;;;5030082;28;20173;-90
2022/01/20 04:41:04;;;;;;;16.17;2.25;;;-0.80;99.90;;;;;;5030413;28;20561;-91
2022/01/20 04:43:31;;;;;;;20.42;2.65;;;-0.80;99.90;;;;;;5030796;28;20509;-90
2022/01/20 04:46:06;;;;;;;19.42;2.75;;;-0.80;99.90;;;;;;5030154;28;20060;-89
2022/01/20 04:59:25;;;;;;;20.13;3.28;;;-0.60;99.90;;;;;;5014564;28;20045;-91
2022/01/20 05:01:52;;;;;;;23.83;4.13;;;-0.50;99.90;;;;;;5030150;28;20488;-91
2022/01/20 05:04:20;;;;;;;20.60;4.40;;;-0.50;99.90;;;;;;5030038;28;20050;-91
2022/01/20 05:06:47;;;;;;;11.68;3.88;;;-0.40;99.90;;;;;;5030062;28;20054;-90
2022/01/20 05:09:19;;;;;;;21.27;6.70;;;-0.40;99.90;;;;;;5029898;28;20152;-91
2022/01/20 05:11:50;;;;;;;29.85;10.93;;;-0.40;99.90;;;;;;5029725;28;20418;-91
2022/01/20 05:14:21;;;;;;;24.23;6.60;;;-0.40;99.90;;;;;;5013624;28;20517;-91
2022/01/20 05:16:48;;;;;;;19.67;6.30;;;-0.40;99.90;;;;;;5029860;28;20133;-90
2022/01/20 05:19:14;;;;;;;20.65;6.13;;;-0.40;99.90;;;;;;5029879;28;20144;-91
2022/01/20 05:21:41;;;;;;;27.48;4.75;;;-0.20;99.90;;;;;;5029761;28;20503;-91
2022/01/20 05:24:08;;;;;;;19.42;4.15;;;-0.10;99.90;;;;;;5029581;28;20117;-91
2022/01/20 05:26:35;;;;;;;26.02;5.13;;;-0.10;99.90;;;;;;5029552;28;20057;-92
2022/01/20 05:29:01;;;;;;;22.80;4.95;;;0.00;99.90;;;;;;5029646;28;20046;-91
2022/01/20 05:31:28;;;;;;;21.65;4.57;;;0.20;99.90;;;;;;5029299;28;20479;-90
2022/01/20 05:33:55;;;;;;;21.52;3.78;;;0.40;99.90;;;;;;5029249;28;20084;-90
2022/01/20 05:36:22;;;;;;;27.17;3.53;;;0.60;99.90;;;;;;5029315;28;20145;-91
2022/01/20 05:38:49;;;;;;;18.10;3.03;;;0.70;99.90;;;;;;5029146;28;20081;-89
2022/01/20 05:41:18;;;;;;;26.00;4.60;;;0.70;99.90;;;;;;5012854;28;20141;-90
2022/01/20 05:43:46;;;;;;;18.10;3.22;;;0.80;99.90;;;;;;5029770;28;20054;-90
2022/01/20 05:46:15;;;;;;;15.27;3.75;;;0.90;99.90;;;;;;5029014;28;20104;-90
2022/01/20 05:48:47;;;;;;;30.63;4.55;;;0.90;99.90;;;;;;5029163;28;20049;-90
2022/01/20 05:51:14;;;;;;;14.75;2.85;;;1.00;99.90;;;;;;5029079;28;20137;-90
2022/01/20 05:53:42;;;;;;;31.98;7.60;;;0.90;99.90;;;;;;5028847;28;20601;-90
2022/01/20 05:56:09;;;;;;;29.42;10.18;;;1.00;99.90;;;;;;5029131;28;20088;-89
2022/01/20 05:58:37;;;;;;;16.13;4.70;;;1.00;99.90;;;;;;5013004;28;20054;-89
2022/01/20 06:01:05;;;;;;;27.30;10.23;;;1.00;99.90;;;;;;5028703;28;20165;-89
2022/01/20 06:03:36;;;;;;;24.92;9.68;;;1.20;99.90;;;;;;5012694;28;20104;-89
2022/01/20 06:06:11;;;;;;;45.05;15.93;;;1.30;99.90;;;;;;5029360;28;20054;-89
2022/01/20 06:08:41;;;;;;;19.27;5.07;;;1.40;99.90;;;;;;5012895;28;20509;-89
2022/01/20 06:11:09;;;;;;;14.93;4.10;;;1.50;99.90;;;;;;5029099;28;20053;-90
2022/01/20 06:13:36;;;;;;;29.58;4.80;;;1.60;99.90;;;;;;5029245;28;20074;-88
2022/01/20 06:16:04;;;;;;;20.33;4.28;;;1.60;99.90;;;;;;5029304;28;20473;-89
2022/01/20 06:18:31;;;;;;;15.82;3.05;;;1.60;99.90;;;;;;5029325;28;20160;-89
2022/01/20 06:20:58;;;;;;;18.63;4.82;;;1.70;99.90;;;;;;5029469;28;20092;-89
2022/01/20 06:23:25;;;;;;;10.48;3.15;;;1.70;99.90;;;;;;5029395;28;20084;-90
2022/01/20 06:25:52;;;;;;;18.25;3.50;;;1.80;99.90;;;;;;5029295;28;20084;-89
2022/01/20 06:28:20;;;;;;;15.05;3.40;;;1.80;99.90;;;;;;5028853;28;20504;-89
2022/01/20 06:30:47;;;;;;;13.80;3.03;;;1.90;99.90;;;;;;5028898;28;20433;-89
2022/01/20 06:33:14;;;;;;;20.10;3.72;;;2.00;99.90;;;;;;5013316;28;20409;-88
2022/01/20 06:35:41;;;;;;;12.45;4.03;;;2.10;99.90;;;;;;5028949;28;20629;-89
2022/01/20 06:38:08;;;;;;;13.82;3.15;;;2.20;99.90;;;;;;5013411;28;20081;-89
2022/01/20 06:40:35;;;;;;;14.45;3.00;;;2.20;99.90;;;;;;5028221;28;20054;-89
2022/01/20 06:43:02;;;;;;;21.10;7.15;;;2.20;99.90;;;;;;5013412;28;20482;-89
2022/01/20 06:45:29;;;;;;;21.70;5.78;;;2.20;99.90;;;;;;5028555;28;20447;-86
2022/01/20 06:47:56;;;;;;;21.55;4.63;;;2.10;99.90;;;;;;5013371;28;20049;-89
2022/01/20 06:50:24;;;;;;;17.23;3.30;;;2.10;99.90;;;;;;5028549;28;20132;-89
2022/01/20 06:52:52;;;;;;;23.77;12.57;;;2.10;99.90;;;;;;5028658;28;20050;-89
2022/01/20 06:55:19;;;;;;;27.92;16.10;;;2.00;99.90;;;;;;5012184;28;20141;-89
2022/01/20 06:57:47;;;;;;;20.90;6.15;;;2.00;99.90;;;;;;5012246;28;20516;-90
2022/01/20 07:00:17;;;;;;;16.55;4.18;;;2.00;99.90;;;;;;5028488;28;20470;-89
2022/01/20 07:02:45;;;;;;;11.77;3.28;;;2.00;99.90;;;;;;5028609;28;20129;-89
2022/01/20 07:05:16;;;;;;;12.52;3.03;;;2.00;99.90;;;;;;5028096;28;20104;-89
2022/01/20 07:07:43;;;;;;;10.27;3.63;;;1.90;99.90;;;;;;5028493;28;20129;-89
2022/01/20 07:10:11;;;;;;;21.73;3.78;;;1.90;99.90;;;;;;5028570;28;20073;-90
2022/01/20 07:12:41;;;;;;;18.63;4.35;;;1.90;99.90;;;;;;5028147;28;20141;-90
2022/01/20 07:15:11;;;;;;;19.25;4.07;;;1.90;99.90;;;;;;5028130;28;20081;-90
2022/01/20 07:17:38;;;;;;;15.65;3.13;;;1.90;99.90;;;;;;5029574;28;20422;-90
2022/01/20 07:20:06;;;;;;;14.98;4.03;;;1.90;99.90;;;;;;5032268;28;20136;-90
2022/01/20 07:22:33;;;;;;;18.77;3.83;;;1.80;99.90;;;;;;5032243;28;20451;-90
2022/01/20 07:24:59;;;;;;;19.52;3.17;;;1.70;99.90;;;;;;5031938;28;20132;-90
2022/01/20 07:27:28;;;;;;;12.50;3.10;;;1.70;99.90;;;;;;5031951;28;20122;-90
2022/01/20 07:29:55;;;;;;;9.90;2.97;;;1.70;99.90;;;;;;5032408;28;20049;-91
2022/01/20 07:32:21;;;;;;;15.35;3.25;;;1.80;99.90;;;;;;5031804;28;20084;-90
2022/01/20 07:34:48;;;;;;;17.20;3.75;;;1.80;99.90;;;;;;5031967;28;20137;-91
2022/01/20 07:37:15;;;;;;;18.88;3.67;;;1.90;99.90;;;;;;5032037;28;20073;-91
2022/01/20 07:39:42;;;;;;;13.98;3.40;;;1.90;99.90;;;;;;5031623;28;20089;-91
2022/01/20 07:42:09;;;;;;;14.35;3.15;;;1.90;99.90;;;;;;5031911;28;20140;-90
2022/01/20 07:44:36;;;;;;;11.68;3.75;;;1.90;99.90;;;;;;5031976;28;20137;-91
2022/01/20 07:47:03;;;;;;;9.73;3.38;;;1.90;99.90;;;;;;5032709;28;20081;-91
2022/01/20 07:49:30;;;;;;;11.48;2.47;;;1.90;99.90;;;;;;5032653;28;20053;-91
2022/01/20 07:51:57;;;;;;;17.30;7.95;;;1.90;99.90;;;;;;5031633;28;20060;-91
2022/01/20 07:54:24;;;;;;;8.30;2.22;;;1.80;99.90;;;;;;5031911;28;20049;-92
2022/01/20 07:56:51;;;;;;;21.27;12.23;;;1.70;99.90;;;;;;5031990;28;20053;-91
2022/01/20 07:59:18;;;;;;;9.90;2.22;;;1.40;99.90;;;;;;5015483;28;20076;-92
2022/01/20 08:01:45;;;;;;;10.05;3.33;;;1.20;99.90;;;;;;5016062;28;20157;-91
2022/01/20 08:04:12;;;;;;;2.38;0.77;;;1.20;99.90;;;;;;5016085;28;20053;-92
2022/01/20 08:06:40;;;;;;;7.30;1.67;;;1.10;99.90;;;;;;5031222;28;20481;-93
2022/01/20 08:09:08;;;;;;;7.35;1.10;;;1.00;99.90;;;;;;5031155;28;20049;-93
2022/01/20 08:11:36;;;;;;;6.63;1.60;;;1.00;99.90;;;;;;4998183;28;20053;-92
2022/01/20 08:14:02;;;;;;;8.30;1.05;;;1.00;99.90;;;;;;5030927;28;20057;-92
2022/01/20 08:16:29;;;;;;;10.77;1.25;;;1.00;99.90;;;;;;5015525;28;20053;-92
2022/01/20 08:18:56;;;;;;;6.80;1.45;;;1.00;99.90;;;;;;5015426;28;20501;-92
2022/01/20 08:21:23;;;;;;;7.57;0.90;;;1.00;99.90;;;;;;5015575;28;20045;-92
2022/01/20 08:23:50;;;;;;;6.38;1.15;;;1.00;99.90;;;;;;5031404;28;20057;-94
2022/01/20 08:26:16;;;;;;;5.72;1.42;;;1.00;99.90;;;;;;5030997;28;20060;-95
2022/01/20 08:28:44;;;;;;;7.43;1.00;;;1.00;99.90;;;;;;5030450;28;20057;-94
2022/01/20 08:31:11;;;;;;;10.73;2.08;;;1.00;99.90;;;;;;5031799;28;20516;-94
2022/01/20 08:33:38;;;;;;;8.60;3.10;;;1.00;99.90;;;;;;4998936;28;20141;-96
2022/01/20 08:36:05;;;;;;;14.93;2.80;;;1.10;99.90;;;;;;5014673;28;20042;-93
2022/01/20 08:38:37;;;;;;;7.28;1.95;;;1.10;99.90;;;;;;5037820;28;20057;-96
2022/01/20 08:41:07;;;;;;;10.38;1.58;;;1.10;99.90;;;;;;5036950;28;20120;-96
2022/01/20 08:43:38;;;;;;;14.75;2.20;;;1.20;99.90;;;;;;5016202;28;20057;-95
2022/01/20 08:46:13;;;;;;;9.07;1.20;;;1.20;99.90;;;;;;5011126;28;20053;-96
2022/01/20 08:48:41;;;;;;;18.80;2.88;;;1.30;99.90;;;;;;5039322;28;20582;-95
2022/01/20 08:51:09;;;;;;;13.50;1.92;;;1.30;99.90;;;;;;5041105;28;20050;-96
2022/01/20 08:53:50;;;;;;;9.15;1.92;;;1.40;99.90;;;;;;5027780;28;20049;-95
2022/01/20 08:56:30;;;;;;;31.98;2.75;;;1.40;99.90;;;;;;5029127;28;20136;-94
2022/01/20 08:59:16;;;;;;;9.02;1.90;;;1.40;99.90;;;;;;5017714;28;20061;-96
2022/01/20 09:01:43;;;;;;;11.55;1.98;;;1.40;99.90;;;;;;5030426;28;20070;-92
2022/01/20 09:04:10;;;;;;;13.25;2.63;;;1.30;99.90;;;;;;5035944;28;20050;-94
2022/01/20 09:06:36;;;;;;;11.80;2.15;;;1.40;99.90;;;;;;5033186;28;20050;-95
2022/01/20 09:09:03;;;;;;;11.52;1.75;;;1.60;99.90;;;;;;5032736;28;20080;-93
2022/01/20 09:11:36;;;;;;;10.98;2.00;;;1.60;99.90;;;;;;5030417;28;20117;-94
2022/01/20 09:16:49;;;;;;;11.05;1.80;;;1.80;99.90;;;;;;5014661;28;20120;-92
2022/01/20 09:19:16;;;;;;;18.02;2.17;;;1.70;99.90;;;;;;5030068;28;20433;-92
2022/01/20 09:21:44;;;;;;;7.40;1.40;;;1.80;99.90;;;;;;5030101;28;20136;-92
2022/01/20 09:24:11;;;;;;;16.95;1.67;;;1.90;99.90;;;;;;5029822;28;20058;-92
2022/01/20 09:26:38;;;;;;;15.35;2.47;;;2.00;99.90;;;;;;5030304;28;20072;-92
2022/01/20 09:29:05;;;;;;;6.75;1.50;;;2.00;99.90;;;;;;5030114;28;20555;-92
2022/01/20 09:31:37;;;;;;;14.18;1.42;;;2.10;99.90;;;;;;5029759;28;20132;-92
2022/01/20 09:34:04;;;;;;;9.23;1.33;;;2.20;99.90;;;;;;5029748;28;20053;-91
2022/01/20 09:36:31;;;;;;;20.02;1.88;;;2.10;99.90;;;;;;5029773;28;20112;-92
2022/01/20 09:38:58;;;;;;;8.27;1.38;;;2.20;99.90;;;;;;5029281;28;20133;-92
2022/01/20 09:41:24;;;;;;;14.07;1.80;;;2.30;99.90;;;;;;5029421;28;20137;-92
2022/01/20 09:43:53;;;;;;;9.23;1.58;;;2.30;99.90;;;;;;5029699;28;20076;-92
2022/01/20 09:46:20;;;;;;;13.05;1.90;;;2.20;99.90;;;;;;5029345;28;20054;-90
2022/01/20 09:48:47;;;;;;;12.73;2.08;;;2.20;99.90;;;;;;5029620;28;20133;-92
2022/01/20 09:51:14;;;;;;;11.38;1.58;;;2.20;99.90;;;;;;5029383;28;20141;-91
2022/01/20 09:53:40;;;;;;;15.00;1.45;;;2.20;99.90;;;;;;5029140;28;20136;-91
2022/01/20 09:56:07;;;;;;;16.38;2.58;;;2.30;99.90;;;;;;5029331;28;20132;-91
2022/01/20 09:58:36;;;;;;;10.48;2.33;;;2.30;99.90;;;;;;5028957;28;20050;-89
2022/01/20 10:01:03;;;;;;;6.78;1.52;;;2.50;99.90;;;;;;5029515;28;20132;-92
2022/01/20 10:03:31;;;;;;;8.93;1.55;;;2.50;99.90;;;;;;5030642;28;20061;-89
2022/01/20 10:06:00;;;;;;;13.98;2.95;;;2.50;99.90;;;;;;5029393;28;20053;-89
2022/01/20 10:08:30;;;;;;;8.50;1.58;;;2.60;99.90;;;;;;5012923;28;20060;-89
2022/01/20 10:10:59;;;;;;;8.82;1.75;;;2.70;99.90;;;;;;5029176;28;20077;-89
2022/01/20 10:13:29;;;;;;;7.28;1.73;;;2.60;99.90;;;;;;5028876;28;20152;-89
2022/01/20 10:16:00;;;;;;;10.82;2.13;;;2.60;99.90;;;;;;5029153;28;20141;-89
2022/01/20 10:18:29;;;;;;;11.02;1.55;;;3.10;99.90;;;;;;5029147;28;20546;-89
2022/01/20 10:21:05;;;;;;;8.35;2.00;;;3.90;99.90;;;;;;5029025;28;20072;-88
2022/01/20 10:23:35;;;;;;;8.52;2.15;;;4.80;99.90;;;;;;5029010;28;20136;-88
2022/01/20 10:26:19;;;;;;;6.28;1.25;;;5.10;99.90;;;;;;5028803;28;20148;-89
2022/01/20 10:29:19;;;;;;;9.00;1.75;;;4.70;99.90;;;;;;5029440;28;20057;-91
2022/01/20 10:32:06;;;;;;;5.07;1.27;;;4.60;99.90;;;;;;5012459;28;20046;-90
2022/01/20 10:34:35;;;;;;;8.27;1.48;;;5.30;99.90;;;;;;5029006;28;20084;-88
2022/01/20 10:37:04;;;;;;;8.73;1.33;;;6.00;99.90;;;;;;5028680;28;20072;-90
2022/01/20 10:39:43;;;;;;;6.22;1.38;;;7.20;99.90;;;;;;5028619;28;20538;-88
2022/01/20 10:42:11;;;;;;;11.13;1.75;;;6.30;99.90;;;;;;5029571;28;20073;-89
2022/01/20 10:44:53;;;;;;;10.45;1.60;;;6.00;99.90;;;;;;5029026;28;20137;-88
2022/01/20 10:47:26;;;;;;;6.75;1.45;;;5.10;99.90;;;;;;5028468;28;20042;-89
2022/01/20 10:49:54;;;;;;;13.15;1.20;;;4.60;99.90;;;;;;5028861;28;20479;-88
2022/01/20 10:52:23;;;;;;;8.07;1.45;;;4.30;99.90;;;;;;5029132;28;20141;-88
2022/01/20 10:54:52;;;;;;;9.10;1.33;;;3.80;99.90;;;;;;5032497;28;20107;-88
2022/01/20 10:57:34;;;;;;;5.45;1.63;;;3.60;99.90;;;;;;5032721;28;20133;-88
2022/01/20 11:00:08;;;;;;;6.22;1.02;;;3.60;99.90;;;;;;5032168;28;20073;-88
2022/01/20 11:02:35;;;;;;;13.57;1.52;;;3.50;99.90;;;;;;5025928;28;20458;-87
2022/01/20 11:05:03;;;;;;;12.60;1.77;;;3.20;99.90;;;;;;5032287;28;20133;-87
2022/01/20 11:07:30;;;;;;;10.80;1.42;;;3.00;99.90;;;;;;5032478;28;20073;-87
2022/01/20 11:10:03;;;;;;;6.20;1.33;;;3.00;99.90;;;;;;5032293;28;20129;-87
2022/01/20 11:12:31;;;;;;;10.05;1.60;;;2.90;99.90;;;;;;5032223;28;20060;-88
2022/01/20 11:15:06;;;;;;;;;;;2.80;99.90;;;;;;5017014;28;20049;-88
2022/01/20 11:17:34;;;;;;;10.60;1.80;;;2.80;99.90;;;;;;5015622;28;20348;-88
2022/01/20 11:20:17;;;;;;;9.50;1.83;;;2.90;99.90;;;;;;5032034;28;20049;-87
2022/01/20 11:22:53;;;;;;;9.30;1.55;;;2.80;99.90;;;;;;5032206;28;20133;-88
2022/01/20 11:25:22;;;;;;;4.55;1.23;;;2.90;99.90;;;;;;5031549;28;20140;-90
2022/01/20 11:28:09;;;;;;;6.80;1.38;;;2.80;99.90;;;;;;5032002;28;20521;-90
2022/01/20 11:30:42;;;;;;;6.38;1.65;;;2.70;99.90;;;;;;5032153;28;20099;-89
2022/01/20 11:33:10;;;;;;;;;;;3.00;99.90;;;;;;5032593;28;20491;-89
2022/01/20 11:35:49;;;;;;;6.20;1.35;;;3.30;99.90;;;;;;5015838;28;19921;-89
2022/01/20 11:38:21;;;;;;;8.82;1.42;;;4.00;99.90;;;;;;5016185;28;20116;-90
2022/01/20 11:41:00;;;;;;;8.82;1.33;;;4.10;99.90;;;;;;5030974;28;20072;-88
2022/01/20 11:43:36;;;;;;;10.80;1.42;;;4.10;99.90;;;;;;5016402;28;20077;-90
2022/01/20 11:46:13;;;;;;;7.80;1.67;;;4.40;99.90;;;;;;5016103;28;20060;-88
2022/01/20 11:48:57;;;;;;;7.28;1.23;;;4.20;99.90;;;;;;5015110;28;20068;-89
2022/01/20 11:51:27;;;;;;;4.85;0.88;;;4.50;99.90;;;;;;5031478;28;20136;-88
2022/01/20 11:54:32;;;;;;;7.90;1.55;;;4.50;99.90;;;;;;5028656;28;20053;-89
2022/01/20 11:57:09;;;;;;;6.68;1.45;;;4.40;99.90;;;;;;5025784;28;20060;-88
2022/01/20 11:59:44;;;;;;;8.60;1.27;;;4.50;99.90;;;;;;5031494;28;20050;-93
2022/01/20 12:02:26;;;;;;;8.02;1.67;;;4.90;99.90;;;;;;5014984;28;20049;-87
2022/01/20 12:04:53;;;;;;;6.97;1.52;;;5.50;99.90;;;;;;5031233;28;20058;-89
2022/01/20 12:07:38;;;;;;;9.35;1.88;;;5.30;99.90;;;;;;5031870;28;20409;-93
2022/01/20 12:10:08;;;;;;;11.57;1.60;;;4.50;99.90;;;;;;5031161;28;20164;-91
2022/01/20 12:12:36;;;;;;;5.65;1.42;;;4.50;99.90;;;;;;5031247;28;20074;-89
2022/01/20 12:15:15;;;;;;;7.70;1.67;;;5.10;99.90;;;;;;5031462;28;20566;-88
2022/01/20 12:17:51;;;;;;;8.73;2.13;;;5.10;99.90;;;;;;5030804;28;20133;-89
2022/01/20 12:20:19;;;;;;;8.70;2.13;;;4.90;99.90;;;;;;5031053;28;20127;-89
2022/01/20 12:22:47;;;;;;;8.45;1.38;;;4.50;99.90;;;;;;5031243;28;20048;-91
2022/01/20 12:25:19;;;;;;;6.25;1.15;;;4.00;99.90;;;;;;5031531;28;20062;-93
2022/01/20 12:27:47;;;;;;;8.70;1.30;;;3.50;99.90;;;;;;5031403;28;20074;-91
2022/01/20 12:30:20;;;;;;;7.07;1.70;;;2.90;99.90;;;;;;5031310;28;20429;-89
2022/01/20 12:33:06;;;;;;;5.45;1.13;;;3.40;99.90;;;;;;5030817;28;20137;-89
2022/01/20 12:35:45;;;;;;;4.13;1.33;;;4.00;99.90;;;;;;5031151;28;20260;-89
2022/01/20 12:38:30;;;;;;;5.97;0.82;;;4.10;99.90;;;;;;5030986;28;20133;-89
2022/01/20 12:41:01;;;;;;;8.45;1.80;;;4.10;99.90;;;;;;5012219;28;20072;-89
2022/01/20 12:43:41;;;;;;;10.55;1.75;;;4.20;99.90;;;;;;5030825;28;20490;-88
2022/01/20 12:46:11;;;;;;;8.30;1.65;;;4.20;99.90;;;;;;5030684;28;20050;-88
2022/01/20 12:48:39;;;;;;;5.45;1.13;;;4.30;99.90;;;;;;5030828;28;20053;-90
2022/01/20 12:51:08;;;;;;;10.95;1.20;;;4.50;99.90;;;;;;5030767;28;20138;-88
2022/01/20 12:53:38;;;;;;;6.40;1.35;;;4.60;99.90;;;;;;5030368;28;20060;-87
2022/01/20 12:56:06;;;;;;;10.77;1.65;;;5.00;99.90;;;;;;5031414;28;20433;-88
2022/01/20 12:58:48;;;;;;;5.90;1.42;;;5.60;99.90;;;;;;5031404;28;20494;-87
2022/01/20 13:01:15;;;;;;;8.15;1.48;;;5.70;99.90;;;;;;5031708;28;20046;-87
2022/01/20 13:03:43;;;;;;;7.22;1.63;;;5.40;99.90;;;;;;5030147;28;20145;-91
2022/01/20 13:06:21;;;;;;;8.07;1.48;;;5.10;99.90;;;;;;5030182;28;20053;-92
2022/01/20 13:08:56;;;;;;;14.25;1.98;;;4.60;99.90;;;;;;5030492;28;20062;-87
2022/01/20 13:11:52;;;;;;;10.43;1.67;;;4.30;99.90;;;;;;5031025;28;20050;-89
2022/01/20 13:14:19;;;;;;;3.85;1.25;;;4.10;99.90;;;;;;5029559;28;20049;-87
2022/01/20 13:16:52;;;;;;;10.05;1.77;;;3.90;99.90;;;;;;5029481;28;20137;-92
2022/01/20 13:19:32;;;;;;;7.05;1.90;;;3.70;99.90;;;;;;5029840;28;20556;-90
2022/01/20 13:22:00;;;;;;;9.48;1.40;;;3.50;99.90;;;;;;5030367;28;20045;-87
2022/01/20 13:24:29;;;;;;;4.55;1.58;;;3.30;99.90;;;;;;5029614;28;20148;-88
2022/01/20 13:26:57;;;;;;;3.33;1.45;;;3.30;99.90;;;;;;5029544;28;20050;-88
2022/01/20 13:29:26;;;;;;;6.40;1.58;;;3.50;99.90;;;;;;5029506;28;20053;-88
2022/01/20 13:31:57;;;;;;;5.85;1.52;;;3.40;99.90;;;;;;5029594;28;20050;-88
2022/01/20 13:34:24;;;;;;;6.00;1.60;;;3.40;99.90;;;;;;5029115;28;20045;-87
2022/01/20 13:36:55;;;;;;;8.57;1.63;;;3.40;99.90;;;;;;5028857;28;20050;-87
2022/01/20 13:39:37;;;;;;;3.88;1.00;;;3.40;99.90;;;;;;5028759;28;20112;-90
2022/01/20 13:42:07;;;;;;;8.68;1.50;;;3.20;99.90;;;;;;5029407;28;20133;-88
2022/01/20 13:47:19;;;;;;;4.68;1.40;;;3.10;99.90;;;;;;5013571;28;20042;-87
2022/01/20 13:49:54;;;;;;;7.30;1.13;;;3.20;99.90;;;;;;5014308;28;20128;-88
2022/01/20 13:52:22;;;;;;;4.43;1.17;;;3.20;99.90;;;;;;5023927;28;20053;-91
2022/01/20 13:54:52;;;;;;;5.05;1.38;;;3.10;99.90;;;;;;5029223;28;20053;-94
2022/01/20 13:57:38;;;;;;;7.22;1.75;;;3.00;99.90;;;;;;5027246;28;20053;-88
2022/01/20 14:00:10;;;;;;;9.60;1.45;;;2.80;99.90;;;;;;5029247;28;20057;-90
2022/01/20 14:02:37;;;;;;;6.35;1.35;;;2.70;99.90;;;;;;5029173;28;20130;-88
2022/01/20 14:05:04;;;;;;;5.22;1.00;;;2.80;99.90;;;;;;5028838;28;20421;-88
2022/01/20 14:07:31;;;;;;;3.38;1.33;;;2.90;99.90;;;;;;5013694;28;20140;-87
2022/01/20 14:09:58;;;;;;;4.28;1.30;;;3.10;99.90;;;;;;5029073;28;20406;-87
2022/01/20 14:12:25;;;;;;;6.35;1.33;;;3.20;99.90;;;;;;5028752;28;20060;-88